Terminal Aerodrome Forecast
Issued by NWS Springfield, MO

Home | Current Version | Previous Version | Text Only | Print | Product List | Glossary On
Versions: 1 2 3 4 5 6 7 8 9 10 11 12 13 14 15 16 17 18
000
FTUS43 KSGF 261723
TAFSGF
TAF
KSGF 261723Z 2618/2718 17012KT P6SM SCT025
     FM270000 15012KT P6SM -TSRA BKN040CB
      TEMPO 2700/2702 P6SM SCT040CB
     FM270200 16013KT P6SM BKN040
      TEMPO 2702/2706 3SM -TSRA BKN040CB
     FM271200 16010KT P6SM VCSH BKN035
     FM271700 19015G24KT P6SM VCSH SCT140=

USA.gov is the U.S. government's official web portal to all federal, state and local government web resources and services.